Astra, Argentina
Current Conditions -  °F | °C
As of 9:00 PM on Saturday 22 Nov 2014 (Local Time) from SAVC Reporting Station
Clear Clear  
Wind Chill: 68°   Ceiling: Unl
Heat Index: 68°   Visibility: 6mi
Dew Point: 37°   Wind: 17mph
Humidity: 33%   Direction: 270°W
Pressure: 29.62"   Gusts: NA
Location:  45.83°S, 67.52°W
Report Text: SAVC 230000Z 27015KT CAVOK 20/03 Q1003
Loading
Personal Weather Stations






























Interactive Weather Map New forecast layout! Learn more

10-Day Weather Forecast

Advertisements
Track Severe Weather on mobile